Time;durP1;ratioP1;P1;durP2;ratioP2;P2;SDS_P1;SDS_P2;PMS_P1;PMS_P2;Temp;Humidity;BMP_temperature;BMP_pressure;BME280_temperature;BME280_humidity;BME280_pressure;Samples;Min_cycle;Max_cycle;Signal;HPM_P1;HPM_P2
2022/01/15 00:00:18;;;;;;;36.45;13.60;;;;;;;1.49;100.00;102904.28;2566127;30;138260;-36
2022/01/15 00:02:46;;;;;;;32.65;12.25;;;;;;;1.42;100.00;102905.66;2565421;30;136830;-36
2022/01/15 00:05:14;;;;;;;34.03;11.23;;;;;;;1.39;100.00;102912.06;2567797;30;137810;-36
2022/01/15 00:07:47;;;;;;;;;;;;;;;1.47;100.00;102919.66;2568286;30;137495;-36
2022/01/15 00:10:17;;;;;;;37.58;12.82;;;;;;;1.46;100.00;102917.03;2566284;30;138247;-36
2022/01/15 00:12:45;;;;;;;28.08;12.13;;;;;;;1.48;100.00;102918.69;2567471;30;138235;-36
2022/01/15 00:15:28;;;;;;;30.42;11.48;;;;;;;1.40;100.00;102919.19;2566355;30;138559;-36
2022/01/15 00:18:00;;;;;;;27.05;10.32;;;;;;;1.40;100.00;102912.97;2568091;30;137385;-36
2022/01/15 00:20:29;;;;;;;29.17;10.50;;;;;;;1.36;100.00;102914.97;2567305;30;139316;-35
2022/01/15 00:22:58;;;;;;;26.98;9.93;;;;;;;1.41;100.00;102912.00;2567451;30;137782;-36
2022/01/15 00:25:28;;;;;;;28.35;9.75;;;;;;;1.40;100.00;102912.97;2567879;30;138322;-36
2022/01/15 00:27:56;;;;;;;27.80;9.82;;;;;;;1.36;100.00;102917.66;2568590;30;136741;-34
2022/01/15 00:30:25;;;;;;;21.30;8.40;;;;;;;1.32;100.00;102917.94;2566970;30;138148;-35
2022/01/15 00:32:53;;;;;;;26.60;10.30;;;;;;;1.31;100.00;102919.78;2567807;30;136865;-36
2022/01/15 00:35:26;;;;;;;21.52;8.15;;;;;;;1.23;100.00;102914.06;2568310;30;139087;-36
2022/01/15 00:37:55;;;;;;;23.77;9.57;;;;;;;1.24;100.00;102905.03;2569133;30;137419;-36
2022/01/15 00:40:22;;;;;;;23.98;9.45;;;;;;;1.21;100.00;102908.78;2567522;30;138544;-35
2022/01/15 00:42:50;;;;;;;23.48;9.02;;;;;;;1.18;100.00;102908.97;2569142;30;137516;-36
2022/01/15 00:45:22;;;;;;;28.23;9.82;;;;;;;1.18;100.00;102906.28;2569335;30;138452;-36
2022/01/15 00:47:50;;;;;;;28.38;9.38;;;;;;;1.11;100.00;102905.81;2569110;30;137411;-36
2022/01/15 00:50:19;;;;;;;25.33;9.10;;;;;;;1.10;100.00;102900.53;2567954;30;139674;-41
2022/01/15 00:52:48;;;;;;;26.17;9.50;;;;;;;1.08;100.00;102892.56;2567924;30;137633;-41
2022/01/15 00:55:18;;;;;;;24.38;9.38;;;;;;;1.07;100.00;102895.38;2565753;30;138138;-41
2022/01/15 00:57:46;;;;;;;25.95;8.88;;;;;;;1.10;100.00;102889.78;2568243;30;137015;-41
2022/01/15 01:00:20;;;;;;;23.25;9.23;;;;;;;1.08;100.00;102875.59;2566478;30;139001;-41
2022/01/15 01:02:48;;;;;;;25.73;9.27;;;;;;;1.11;100.00;102864.63;2568089;30;138281;-41
2022/01/15 01:05:17;;;;;;;20.73;9.05;;;;;;;1.12;100.00;102863.66;2567925;30;138230;-41
2022/01/15 01:07:46;;;;;;;24.38;8.63;;;;;;;1.11;100.00;102853.88;2568731;30;136814;-41
2022/01/15 01:23:22;;;;;;;27.80;9.38;;;;;;;1.14;100.00;102834.84;2567796;30;138264;-41
2022/01/15 01:25:55;;;;;;;30.40;9.25;;;;;;;1.20;100.00;102836.28;2568116;30;138527;-41
2022/01/15 01:28:37;;;;;;;25.50;9.00;;;;;;;1.19;100.00;102839.91;2568657;30;138715;-41
2022/01/15 01:31:20;;;;;;;26.50;9.18;;;;;;;1.12;100.00;102843.00;2568428;30;138070;-41
2022/01/15 01:33:52;;;;;;;25.15;8.80;;;;;;;1.13;100.00;102833.13;2568446;30;137823;-41
2022/01/15 01:38:57;;;;;;;25.55;9.55;;;;;;;1.10;100.00;102831.47;2567495;30;137478;-41
2022/01/15 01:41:34;;;;;;;27.50;9.50;;;;;;;1.17;100.00;102840.03;2569003;30;138513;-41
2022/01/15 01:44:03;;;;;;;26.20;9.50;;;;;;;1.17;100.00;102834.63;2566263;30;137498;-41
2022/01/15 01:46:39;;;;;;;25.55;8.75;;;;;;;1.13;100.00;102830.44;2567903;30;139086;-41
2022/01/15 01:49:12;;;;;;;31.90;10.18;;;;;;;1.09;100.00;102827.06;2569295;30;136749;-41
2022/01/15 01:51:41;;;;;;;24.67;8.90;;;;;;;1.11;100.00;102822.44;2568819;30;138209;-41
2022/01/15 01:54:11;;;;;;;22.65;8.00;;;;;;;1.19;100.00;102824.66;2565600;30;138681;-41
2022/01/15 01:56:40;;;;;;;21.88;8.90;;;;;;;1.12;100.00;102824.19;2568408;30;138639;-41
2022/01/15 01:59:08;;;;;;;22.40;8.55;;;;;;;1.19;100.00;102824.66;2568598;30;137638;-41
2022/01/15 02:01:37;;;;;;;21.08;8.30;;;;;;;1.18;100.00;102822.91;2567554;30;138237;-41
2022/01/15 02:04:05;;;;;;;22.38;8.65;;;;;;;1.10;100.00;102819.88;2567595;30;136864;-41
2022/01/15 02:06:35;;;;;;;24.67;8.82;;;;;;;1.14;100.00;102816.03;2567732;30;138983;-41
2022/01/15 02:09:07;;;;;;;26.70;9.57;;;;;;;1.11;100.00;102821.59;2565091;30;137755;-41
2022/01/15 02:11:35;;;;;;;22.58;8.25;;;;;;;1.13;100.00;102811.59;2567375;30;138486;-41
2022/01/15 02:14:03;;;;;;;23.67;8.00;;;;;;;1.11;100.00;102816.22;2566725;30;137188;-41
2022/01/15 02:16:31;;;;;;;25.63;8.45;;;;;;;1.12;100.00;102816.09;2568283;30;138186;-41
2022/01/15 02:18:59;;;;;;;;;;;;;;;1.11;100.00;102814.38;2569555;30;137658;-40
2022/01/15 02:23:55;;;;;;;22.45;9.05;;;;;;;1.10;100.00;102809.13;2566917;30;136652;-41
2022/01/15 02:26:24;;;;;;;;;;;;;;;1.09;100.00;102804.72;2567482;30;137087;-41
2022/01/15 02:28:55;;;;;;;23.00;8.00;;;;;;;1.03;100.00;102807.78;2567621;30;136746;-41
2022/01/15 02:31:25;;;;;;;23.10;8.02;;;;;;;1.02;100.00;102800.69;2565906;30;137357;-41
2022/01/15 02:33:55;;;;;;;23.30;8.15;;;;;;;1.00;100.00;102798.13;2568200;30;137815;-41
2022/01/15 02:36:26;;;;;;;24.77;8.63;;;;;;;1.03;100.00;102797.03;2567178;30;138841;-41
2022/01/15 02:38:55;;;;;;;23.95;9.20;;;;;;;1.05;100.00;102790.59;2568031;30;137784;-41
2022/01/15 02:41:34;;;;;;;25.88;9.23;;;;;;;1.07;100.00;102777.06;2567426;30;138474;-41
2022/01/15 02:44:05;;;;;;;23.63;8.98;;;;;;;1.10;100.00;102783.09;2568519;30;137671;-41
2022/01/15 02:49:02;;;;;;;;;;;;;;;1.14;100.00;102789.97;2567186;30;137316;-41
2022/01/15 02:51:31;;;;;;;;;;;;;;;1.12;100.00;102781.16;2567436;30;138164;-41
2022/01/15 02:54:00;;;;;;;25.48;8.60;;;;;;;1.19;100.00;102783.44;2568691;30;137055;-41
2022/01/15 02:56:31;;;;;;;23.15;8.90;;;;;;;1.17;100.00;102783.53;2567140;30;138510;-41
2022/01/15 02:59:00;;;;;;;22.08;7.93;;;;;;;1.13;100.00;102777.50;2568153;30;136691;-41
2022/01/15 03:01:28;;;;;;;26.10;8.55;;;;;;;1.08;100.00;102776.09;2567370;30;138328;-41
2022/01/15 03:03:56;;;;;;;;;;;;;;;1.07;100.00;102763.63;2569204;30;137467;-41
2022/01/15 03:06:24;;;;;;;24.25;8.02;;;;;;;1.04;100.00;102753.94;2568341;30;139066;-41
2022/01/15 03:08:52;;;;;;;;;;;;;;;1.08;100.00;102762.66;2565485;30;137789;-41
2022/01/15 03:11:21;;;;;;;23.40;8.05;;;;;;;1.04;100.00;102759.31;2567031;30;139018;-41
2022/01/15 03:13:50;;;;;;;26.63;8.20;;;;;;;1.09;100.00;102759.84;2568751;30;136847;-41
2022/01/15 03:16:20;;;;;;;21.10;8.52;;;;;;;1.02;100.00;102760.34;2568158;30;137353;-41
2022/01/15 03:18:48;;;;;;;21.77;7.65;;;;;;;1.08;100.00;102751.91;2567003;30;138130;-41
2022/01/15 03:21:17;;;;;;;20.70;8.20;;;;;;;1.02;100.00;102752.28;2565897;30;138238;-41
2022/01/15 03:23:45;;;;;;;22.38;8.13;;;;;;;1.01;100.00;102743.38;2566278;30;137391;-41
2022/01/15 03:26:14;;;;;;;21.48;8.10;;;;;;;0.97;100.00;102739.19;2567491;30;138987;-41
2022/01/15 03:28:43;;;;;;;18.45;7.40;;;;;;;0.89;100.00;102737.00;2567847;30;137702;-41
2022/01/15 03:31:12;;;;;;;21.63;8.25;;;;;;;0.94;100.00;102734.84;2566708;30;138387;-41
2022/01/15 03:33:40;;;;;;;20.23;7.95;;;;;;;0.89;100.00;102731.63;2568429;30;137651;-41
2022/01/15 03:36:08;;;;;;;17.83;6.50;;;;;;;0.86;100.00;102727.28;2568676;30;139051;-41
2022/01/15 03:38:36;;;;;;;18.23;7.30;;;;;;;0.83;100.00;102727.50;2567912;30;137464;-41
2022/01/15 03:41:04;;;;;;;19.90;7.72;;;;;;;0.91;100.00;102734.19;2568372;30;138439;-41
2022/01/15 03:43:32;;;;;;;16.83;6.78;;;;;;;0.81;100.00;102737.50;2566684;30;137653;-41
2022/01/15 03:46:00;;;;;;;;;;;;;;;0.81;100.00;102724.06;2567447;30;138379;-41
2022/01/15 03:48:28;;;;;;;19.23;6.95;;;;;;;0.84;100.00;102718.47;2567808;30;136991;-41
2022/01/15 03:50:56;;;;;;;;;;;;;;;0.79;100.00;102717.03;2568233;30;138978;-41
2022/01/15 03:53:24;;;;;;;16.70;7.28;;;;;;;0.86;100.00;102718.38;2567575;30;137927;-41
2022/01/15 03:55:52;;;;;;;;;;;;;;;0.80;100.00;102705.38;2566575;30;139070;-41
2022/01/15 03:58:20;;;;;;;18.15;7.45;;;;;;;0.78;100.00;102699.19;2567672;30;137088;-41
2022/01/15 04:00:48;;;;;;;18.38;8.00;;;;;;;0.77;100.00;102705.53;2567654;30;138555;-41
2022/01/15 04:03:16;;;;;;;17.30;7.20;;;;;;;0.76;100.00;102691.25;2563917;30;137502;-41
2022/01/15 04:05:44;;;;;;;18.65;7.95;;;;;;;0.69;100.00;102693.47;2568511;30;137207;-41
2022/01/15 04:08:12;;;;;;;19.40;7.97;;;;;;;0.66;100.00;102693.69;2567707;30;137801;-41
2022/01/15 04:10:42;;;;;;;18.00;7.75;;;;;;;0.64;100.00;102695.63;2568044;30;138238;-41
2022/01/15 04:13:11;;;;;;;17.23;7.22;;;;;;;0.64;100.00;102687.56;2569383;30;138303;-41
2022/01/15 04:15:39;;;;;;;17.40;7.50;;;;;;;0.61;100.00;102685.06;2568242;30;138305;-41
2022/01/15 04:18:06;;;;;;;16.88;7.15;;;;;;;0.59;100.00;102680.75;2568133;30;138456;-41
2022/01/15 04:20:34;;;;;;;15.38;7.05;;;;;;;0.66;100.00;102677.56;2567580;30;139472;-41
2022/01/15 04:23:02;;;;;;;14.90;7.10;;;;;;;0.61;100.00;102686.88;2570303;30;137443;-41
2022/01/15 04:25:30;;;;;;;17.27;7.43;;;;;;;0.60;100.00;102688.72;2568357;30;138262;-41
2022/01/15 04:28:01;;;;;;;;;;;;;;;0.64;100.00;102679.50;2568855;30;137021;-41
2022/01/15 04:30:35;;;;;;;15.25;6.50;;;;;;;0.57;100.00;102683.56;2569893;30;137439;-41
2022/01/15 04:33:03;;;;;;;14.85;6.55;;;;;;;0.63;100.00;102676.91;2568499;30;137288;-41
2022/01/15 04:35:31;;;;;;;;;;;;;;;0.54;100.00;102675.69;2569359;30;137635;-40
2022/01/15 04:38:07;;;;;;;15.38;7.00;;;;;;;0.52;100.00;102672.22;2568009;30;137088;-41
2022/01/15 04:40:35;;;;;;;14.05;7.38;;;;;;;0.46;100.00;102680.69;2568519;30;139181;-41
2022/01/15 04:43:03;;;;;;;14.38;6.97;;;;;;;0.40;100.00;102684.66;2568753;30;136973;-40
2022/01/15 04:45:30;;;;;;;;;;;;;;;0.35;100.00;102671.53;2567241;30;139204;-40
2022/01/15 04:47:58;;;;;;;16.02;6.25;;;;;;;0.30;100.00;102670.97;2568977;30;137080;-41
2022/01/15 04:50:26;;;;;;;15.23;7.22;;;;;;;0.25;100.00;102670.38;2568015;30;138866;-41
2022/01/15 04:52:54;;;;;;;15.32;7.57;;;;;;;0.31;100.00;102670.00;2567876;30;136886;-41
2022/01/15 04:55:22;;;;;;;16.00;7.82;;;;;;;0.25;100.00;102673.06;2566832;30;139165;-41
2022/01/15 04:57:50;;;;;;;16.83;7.15;;;;;;;0.31;100.00;102680.75;2568266;30;137428;-41
2022/01/15 05:00:18;;;;;;;;;;;;;;;0.23;100.00;102683.91;2568474;30;138846;-41
2022/01/15 05:02:46;;;;;;;14.38;6.75;;;;;;;0.21;100.00;102680.47;2569446;30;137173;-41
2022/01/15 05:05:14;;;;;;;14.25;6.57;;;;;;;0.19;100.00;102676.16;2567887;30;139310;-41
2022/01/15 05:07:43;;;;;;;14.73;6.40;;;;;;;0.24;100.00;102677.59;2568294;30;136993;-41
2022/01/15 05:10:16;;;;;;;15.68;6.93;;;;;;;0.22;100.00;102679.50;2568904;30;137390;-41
2022/01/15 05:12:46;;;;;;;17.42;7.20;;;;;;;0.23;100.00;102675.00;2566484;30;137622;-41
2022/01/15 05:15:15;;;;;;;16.08;6.82;;;;;;;0.13;100.00;102675.59;2566165;30;139372;-41
2022/01/15 05:17:47;;;;;;;15.63;7.70;;;;;;;0.08;100.00;102676.84;2567671;30;137303;-41
2022/01/15 05:20:20;;;;;;;16.70;7.78;;;;;;;0.07;100.00;102684.03;2568122;30;138268;-41
2022/01/15 05:22:50;;;;;;;14.70;7.35;;;;;;;0.06;100.00;102676.94;2566210;30;137865;-41
2022/01/15 05:25:18;;;;;;;16.85;7.53;;;;;;;0.05;100.00;102666.28;2567556;30;138374;-41
2022/01/15 05:27:47;;;;;;;18.42;7.78;;;;;;;-0.03;100.00;102659.59;2568173;30;138300;-41
2022/01/15 05:30:15;;;;;;;16.05;7.60;;;;;;;0.03;100.00;102663.72;2568791;30;137095;-41
2022/01/15 05:32:43;;;;;;;;;;;;;;;0.09;100.00;102655.28;2566346;30;137350;-41
2022/01/15 05:35:11;;;;;;;17.52;7.85;;;;;;;0.07;100.00;102662.56;2568083;30;138257;-41
2022/01/15 05:37:39;;;;;;;18.95;7.57;;;;;;;0.10;100.00;102659.69;2566169;30;137418;-41
2022/01/15 05:40:07;;;;;;;20.08;8.35;;;;;;;0.12;100.00;102657.75;2568799;30;138290;-41
2022/01/15 05:42:36;;;;;;;17.70;8.27;;;;;;;0.11;100.00;102663.22;2566837;30;137493;-41
2022/01/15 05:45:04;;;;;;;17.48;8.30;;;;;;;0.17;100.00;102653.91;2568124;30;138855;-41
2022/01/15 05:47:32;;;;;;;20.05;8.80;;;;;;;0.10;100.00;102659.69;2568983;30;138094;-41
2022/01/15 05:50:00;;;;;;;19.15;8.48;;;;;;;0.11;100.00;102650.66;2568281;30;137347;-41
2022/01/15 05:52:28;;;;;;;;;;;;;;;0.13;100.00;102659.47;2568791;30;139254;-41
2022/01/15 05:54:55;;;;;;;25.13;9.20;;;;;;;0.12;100.00;102664.94;2566653;30;138962;-39
2022/01/15 05:57:23;;;;;;;20.80;9.02;;;;;;;0.11;100.00;102658.72;2567524;30;137108;-41
2022/01/15 05:59:52;;;;;;;23.42;9.60;;;;;;;0.16;100.00;102652.19;2569314;30;137070;-41
2022/01/15 06:02:20;;;;;;;;;;;;;;;0.11;100.00;102650.66;2567175;30;138170;-41
2022/01/15 06:04:48;;;;;;;23.65;9.35;;;;;;;0.10;100.00;102648.94;2567522;30;138542;-41
2022/01/15 06:07:16;;;;;;;21.20;8.02;;;;;;;0.06;100.00;102644.75;2569269;30;137787;-41
2022/01/15 06:09:44;;;;;;;23.42;8.57;;;;;;;0.00;100.00;102647.81;2568100;30;138378;-41
2022/01/15 06:12:12;;;;;;;;;;;;;;;0.01;100.00;102652.22;2568500;30;137444;-41
2022/01/15 06:14:40;;;;;;;22.83;8.45;;;;;;;0.02;100.00;102651.28;2567850;30;138474;-41
2022/01/15 06:17:08;;;;;;;21.20;9.02;;;;;;;0.01;100.00;102641.50;2569276;30;136734;-41
2022/01/15 06:19:36;;;;;;;;;;;;;;;-0.02;100.00;102652.41;2568042;30;137384;-41
2022/01/15 06:22:04;;;;;;;22.30;8.55;;;;;;;-0.02;100.00;102655.97;2568290;30;137194;-41
2022/01/15 06:24:33;;;;;;;24.60;9.20;;;;;;;-0.05;100.00;102645.44;2567753;30;137160;-41
2022/01/15 06:27:01;;;;;;;23.27;8.95;;;;;;;-0.08;100.00;102644.75;2568234;30;137115;-41
2022/01/15 06:29:29;;;;;;;;;;;;;;;-0.08;100.00;102647.44;2569309;30;139115;-40
2022/01/15 06:31:56;;;;;;;22.05;8.80;;;;;;;-0.12;100.00;102649.47;2566822;30;137026;-41
2022/01/15 06:34:24;;;;;;;;;;;;;;;-0.09;100.00;102648.38;2566422;30;137371;-41
2022/01/15 06:36:52;;;;;;;22.27;8.50;;;;;;;-0.10;100.00;102641.31;2567882;30;137424;-41
2022/01/15 06:39:20;;;;;;;;;;;;;;;-0.12;100.00;102640.53;2568234;30;137309;-41
2022/01/15 06:41:51;;;;;;;24.05;9.18;;;;;;;-0.11;100.00;102645.81;2565826;30;137164;-40
2022/01/15 06:44:19;;;;;;;25.60;9.93;;;;;;;-0.09;100.00;102640.34;2568298;30;137328;-41
2022/01/15 06:46:47;;;;;;;23.80;10.02;;;;;;;-0.07;100.00;102641.09;2567985;30;137186;-41
2022/01/15 06:49:14;;;;;;;;;;;;;;;-0.10;100.00;102630.56;2567253;30;139336;-41
2022/01/15 06:52:52;;;;;;;21.13;8.30;;;;;;;-0.12;100.00;102630.69;2567011;30;136773;-35
2022/01/15 06:55:20;;;;;;;;;;;;;;;-0.17;100.00;102632.78;2567269;30;138464;-36
2022/01/15 06:57:48;;;;;;;25.95;10.50;;;;;;;-0.11;100.00;102623.47;2567974;30;137994;-36
2022/01/15 07:00:16;;;;;;;;;;;;;;;-0.14;100.00;102616.47;2568757;30;139010;-36
2022/01/15 07:02:44;;;;;;;24.17;9.68;;;;;;;-0.08;100.00;102620.59;2567512;30;137877;-36
2022/01/15 07:05:12;;;;;;;24.42;11.10;;;;;;;-0.13;100.00;102628.09;2567945;30;138220;-36
2022/01/15 07:07:44;;;;;;;;;;;;;;;-0.14;100.00;102627.19;2566957;30;137025;-36
2022/01/15 07:10:13;;;;;;;24.70;9.63;;;;;;;-0.14;100.00;102624.53;2568236;30;137299;-35
2022/01/15 07:12:42;;;;;;;20.83;9.48;;;;;;;-0.11;100.00;102623.47;2567498;30;137879;-35
2022/01/15 07:15:11;;;;;;;21.85;9.40;;;;;;;-0.19;100.00;102626.63;2565948;30;137719;-36
2022/01/15 07:17:44;;;;;;;19.42;8.32;;;;;;;-0.20;100.00;102620.44;2568089;30;136995;-36
2022/01/15 07:20:13;;;;;;;19.90;8.85;;;;;;;-0.13;100.00;102620.91;2566692;30;137242;-36
2022/01/15 07:22:41;;;;;;;22.98;9.52;;;;;;;-0.13;100.00;102614.66;2567557;30;136854;-36
2022/01/15 07:25:11;;;;;;;25.05;9.57;;;;;;;-0.13;100.00;102615.53;2568133;30;138314;-36
2022/01/15 07:27:39;;;;;;;24.63;9.50;;;;;;;-0.09;100.00;102613.50;2567937;30;136943;-36
2022/01/15 07:30:09;;;;;;;20.25;9.00;;;;;;;-0.09;100.00;102616.19;2567302;30;137873;-36
2022/01/15 07:32:38;;;;;;;23.60;9.82;;;;;;;-0.05;100.00;102615.03;2568002;30;136698;-36
2022/01/15 07:35:10;;;;;;;23.63;9.88;;;;;;;-0.07;100.00;102609.78;2569061;30;137401;-35
2022/01/15 07:37:38;;;;;;;20.67;8.95;;;;;;;-0.13;100.00;102609.28;2566210;30;137271;-35
2022/01/15 07:40:07;;;;;;;21.25;9.05;;;;;;;-0.12;100.00;102606.53;2567225;30;137838;-36
2022/01/15 07:42:37;;;;;;;24.70;9.57;;;;;;;-0.08;100.00;102615.22;2567292;30;136740;-36
2022/01/15 07:45:13;;;;;;;20.10;9.25;;;;;;;-0.10;100.00;102611.78;2568507;30;139660;-36
2022/01/15 07:47:42;;;;;;;23.15;9.70;;;;;;;-0.11;100.00;102607.38;2565816;30;137542;-36
2022/01/15 07:50:14;;;;;;;20.60;9.35;;;;;;;-0.08;100.00;102607.19;2568642;30;138553;-36
2022/01/15 07:52:42;;;;;;;21.15;9.10;;;;;;;-0.09;100.00;102600.09;2569324;30;137145;-36
2022/01/15 07:55:10;;;;;;;;;;;;;;;-0.03;100.00;102605.06;2568739;30;137712;-36
2022/01/15 07:57:58;;;;;;;21.20;9.57;;;;;;;-0.02;100.00;102606.78;2566739;30;138007;-36
2022/01/15 08:00:26;;;;;;;;;;;;;;;-0.02;100.00;102614.81;2566945;30;137705;-35
2022/01/15 08:02:54;;;;;;;23.10;9.23;;;;;;;-0.01;100.00;102605.81;2568426;30;136840;-36
2022/01/15 08:05:22;;;;;;;22.50;10.32;;;;;;;0.01;100.00;102606.59;2570140;30;137185;-36
2022/01/15 08:07:50;;;;;;;24.55;9.85;;;;;;;0.05;100.00;102597.38;2567914;30;136750;-35
2022/01/15 08:10:18;;;;;;;;;;;;;;;0.07;100.00;102595.47;2569590;30;137477;-35
2022/01/15 08:12:48;;;;;;;24.55;9.15;;;;;;;0.13;100.00;102591.50;2567387;30;136973;-36
2022/01/15 08:15:19;;;;;;;25.85;10.15;;;;;;;0.20;100.00;102594.66;2568684;30;138220;-36
2022/01/15 08:17:47;;;;;;;23.90;9.38;;;;;;;0.26;100.00;102595.13;2565685;30;138334;-36
2022/01/15 08:20:15;;;;;;;25.85;10.27;;;;;;;0.23;100.00;102589.94;2567802;30;139535;-36
2022/01/15 08:22:45;;;;;;;26.48;10.65;;;;;;;0.27;100.00;102591.47;2567471;30;137494;-35
2022/01/15 08:25:16;;;;;;;27.92;10.48;;;;;;;0.25;100.00;102592.50;2567412;30;137355;-36
2022/01/15 08:27:46;;;;;;;25.73;10.23;;;;;;;0.23;100.00;102583.69;2567385;30;137327;-36
2022/01/15 08:30:15;;;;;;;26.67;10.68;;;;;;;0.23;100.00;102583.69;2567689;30;138402;-36
2022/01/15 08:32:44;;;;;;;23.83;10.45;;;;;;;0.28;100.00;102587.81;2568211;30;137529;-36
2022/01/15 08:35:12;;;;;;;25.52;10.35;;;;;;;0.27;100.00;102583.41;2567907;30;138393;-36
2022/01/15 08:37:40;;;;;;;23.73;9.82;;;;;;;0.31;100.00;102576.03;2568520;30;136798;-35
2022/01/15 08:40:11;;;;;;;24.23;10.15;;;;;;;0.34;100.00;102578.50;2567117;30;139376;-36
2022/01/15 08:42:39;;;;;;;26.30;10.68;;;;;;;0.32;100.00;102572.38;2569296;30;137508;-36
2022/01/15 08:45:08;;;;;;;24.15;10.35;;;;;;;0.34;100.00;102567.75;2566272;30;138556;-36
2022/01/15 08:47:37;;;;;;;27.02;11.27;;;;;;;0.33;100.00;102574.09;2569792;30;136995;-35
2022/01/15 08:50:07;;;;;;;24.58;10.43;;;;;;;0.36;100.00;102576.56;2566844;30;139167;-36
2022/01/15 08:52:36;;;;;;;23.02;9.63;;;;;;;0.36;100.00;102576.56;2568119;30;137106;-36
2022/01/15 08:55:05;;;;;;;20.70;9.85;;;;;;;0.40;100.00;102582.59;2568621;30;138456;-36
2022/01/15 08:57:33;;;;;;;21.38;9.10;;;;;;;0.40;100.00;102580.78;2568001;30;136921;-36
2022/01/15 09:00:03;;;;;;;21.08;8.75;;;;;;;0.41;100.00;102582.50;2565817;30;137834;-36
2022/01/15 09:02:31;;;;;;;22.75;9.27;;;;;;;0.53;100.00;102586.19;2567170;30;138579;-36
2022/01/15 09:05:00;;;;;;;19.25;8.98;;;;;;;0.53;100.00;102585.31;2568533;30;138375;-36
2022/01/15 09:07:29;;;;;;;19.67;8.48;;;;;;;0.55;100.00;102584.25;2568337;30;137489;-36
2022/01/15 09:09:57;;;;;;;;;;;;;;;0.56;100.00;102587.81;2567992;30;137402;-36
2022/01/15 09:12:25;;;;;;;16.70;8.63;;;;;;;0.59;100.00;102584.03;2565378;30;137244;-36
2022/01/15 09:14:58;;;;;;;;;;;;;;;0.56;100.00;102583.28;2568539;30;138527;-36
2022/01/15 09:17:26;;;;;;;17.88;7.70;;;;;;;0.56;100.00;102579.75;2568355;30;137107;-36
2022/01/15 09:19:55;;;;;;;19.80;8.77;;;;;;;0.59;100.00;102579.53;2566886;30;137556;-36
2022/01/15 09:22:23;;;;;;;22.27;9.13;;;;;;;0.64;100.00;102584.59;2566319;30;136704;-36
2022/01/15 09:24:51;;;;;;;19.05;8.57;;;;;;;0.63;100.00;102578.38;2568742;30;138999;-36
2022/01/15 09:30:13;;;;;;;17.23;7.57;;;;;;;0.69;100.00;102583.31;2568101;30;138468;-36
2022/01/15 09:32:44;;;;;;;16.63;7.55;;;;;;;0.66;100.00;102586.22;2568039;30;137583;-36
2022/01/15 09:35:13;;;;;;;18.08;7.53;;;;;;;0.63;100.00;102580.19;2568508;30;138033;-36
2022/01/15 09:37:42;;;;;;;17.38;7.78;;;;;;;0.67;100.00;102576.34;2566297;30;137934;-35
2022/01/15 09:40:11;;;;;;;16.35;7.93;;;;;;;0.69;100.00;102579.78;2569407;30;138429;-35
2022/01/15 09:42:40;;;;;;;16.35;7.75;;;;;;;0.65;100.00;102567.50;2568191;30;137048;-36
2022/01/15 09:45:09;;;;;;;15.27;7.40;;;;;;;0.64;100.00;102565.78;2566485;30;138387;-36
2022/01/15 09:47:37;;;;;;;18.67;8.23;;;;;;;0.74;100.00;102569.59;2568872;30;137672;-36
2022/01/15 09:50:11;;;;;;;13.23;6.95;;;;;;;0.76;100.00;102572.16;2567533;30;137295;-36
2022/01/15 09:52:39;;;;;;;15.68;7.43;;;;;;;0.77;100.00;102561.31;2567098;30;138558;-35
2022/01/15 09:55:10;;;;;;;17.67;8.13;;;;;;;0.81;100.00;102557.44;2568675;30;138372;-36
2022/01/15 09:57:39;;;;;;;15.18;7.13;;;;;;;0.90;100.00;102547.00;2567891;30;137455;-36
2022/01/15 10:00:16;;;;;;;17.83;7.90;;;;;;;0.90;100.00;102545.19;2567639;30;139390;-36
2022/01/15 10:02:46;;;;;;;16.42;8.05;;;;;;;0.99;100.00;102543.69;2568361;30;138455;-36
2022/01/15 10:05:16;;;;;;;15.98;7.55;;;;;;;0.94;100.00;102543.16;2567213;30;139008;-36
2022/01/15 10:07:57;;;;;;;16.13;7.82;;;;;;;0.97;100.00;102535.72;2566092;30;137408;-36
2022/01/15 10:10:27;;;;;;;16.52;7.88;;;;;;;1.05;100.00;102537.00;2568561;30;137511;-35
2022/01/15 10:12:55;;;;;;;15.10;7.28;;;;;;;1.07;100.00;102535.09;2566085;30;137718;-36
2022/01/15 10:15:23;;;;;;;15.90;7.30;;;;;;;1.12;100.00;102532.94;2567813;30;139003;-36
2022/01/15 10:17:51;;;;;;;;;;;;;;;1.13;100.00;102530.13;2567666;30;137359;-36
2022/01/15 10:20:23;;;;;;;14.55;6.85;;;;;;;1.21;100.00;102526.91;2568624;30;139608;-36
2022/01/15 10:22:52;;;;;;;13.82;6.95;;;;;;;1.21;100.00;102520.69;2569304;30;136885;-36
2022/01/15 10:25:22;;;;;;;15.60;7.07;;;;;;;1.23;100.00;102521.44;2568082;30;137523;-36
2022/01/15 10:27:54;;;;;;;14.57;6.93;;;;;;;1.27;100.00;102529.16;2566927;30;137811;-36
2022/01/15 10:30:29;;;;;;;15.38;7.32;;;;;;;1.33;100.00;102525.19;2568638;30;137266;-36
2022/01/15 10:33:04;;;;;;;13.63;6.63;;;;;;;1.39;100.00;102523.88;2566900;30;137808;-36
2022/01/15 10:35:33;;;;;;;18.13;7.90;;;;;;;1.48;100.00;102523.22;2567469;30;137868;-36
2022/01/15 10:38:14;;;;;;;18.35;8.77;;;;;;;1.55;100.00;102524.47;2568318;30;137451;-36
2022/01/15 10:40:47;;;;;;;16.80;7.40;;;;;;;1.56;100.00;102517.28;2567590;30;137738;-36
2022/01/15 10:43:17;;;;;;;17.17;7.93;;;;;;;1.56;100.00;102514.59;2567770;30;137416;-36
2022/01/15 10:45:50;;;;;;;17.40;8.23;;;;;;;1.64;100.00;102512.19;2567904;30;137422;-36
2022/01/15 10:48:31;;;;;;;17.48;8.43;;;;;;;1.67;100.00;102509.28;2568913;30;136912;-36
2022/01/15 10:51:10;;;;;;;18.23;8.18;;;;;;;1.72;100.00;102506.25;2568794;30;138184;-36
2022/01/15 10:53:40;;;;;;;;;;;;;;;1.74;100.00;102509.69;2568421;30;137820;-36
2022/01/15 10:56:09;;;;;;;;;;;;;;;1.77;100.00;102501.38;2569193;30;138429;-36
2022/01/15 10:58:38;;;;;;;13.77;6.60;;;;;;;1.79;100.00;102504.81;2567921;30;136765;-36
2022/01/15 11:01:06;;;;;;;15.35;7.85;;;;;;;1.84;100.00;102501.81;2567337;30;138958;-36
2022/01/15 11:03:44;;;;;;;15.38;7.63;;;;;;;1.88;100.00;102503.28;2568627;30;136918;-36
2022/01/15 11:06:12;;;;;;;15.60;7.37;;;;;;;1.93;100.00;102500.25;2567470;30;138002;-36
2022/01/15 11:08:42;;;;;;;;;;;;;;;1.98;100.00;102498.09;2568161;30;136717;-35
2022/01/15 11:11:14;;;;;;;12.68;5.55;;;;;;;2.00;100.00;102502.38;2567023;30;138257;-36
2022/01/15 11:13:46;;;;;;;11.50;5.90;;;;;;;2.08;100.00;102498.25;2566091;30;137629;-36
2022/01/15 11:16:16;;;;;;;11.65;6.05;;;;;;;2.08;100.00;102487.47;2567065;30;138118;-36
2022/01/15 11:18:50;;;;;;;12.57;5.80;;;;;;;2.13;100.00;102494.25;2567229;30;136996;-36
2022/01/15 11:21:19;;;;;;;11.10;6.07;;;;;;;2.14;100.00;102487.88;2567712;30;137422;-36
2022/01/15 11:23:49;;;;;;;13.25;5.90;;;;;;;2.13;100.00;102486.16;2568244;30;137682;-36
2022/01/15 11:26:24;;;;;;;12.88;6.22;;;;;;;2.18;100.00;102488.50;2566813;30;139255;-36
2022/01/15 11:28:53;;;;;;;11.27;5.82;;;;;;;2.22;100.00;102487.28;2568005;30;136743;-36
2022/01/15 11:31:26;;;;;;;11.32;5.75;;;;;;;2.22;100.00;102491.81;2567296;30;137170;-36
2022/01/15 11:33:59;;;;;;;11.98;6.10;;;;;;;2.22;100.00;102489.13;2568403;30;136877;-36
2022/01/15 11:36:34;;;;;;;9.85;5.07;;;;;;;2.20;100.00;102486.53;2566425;30;138224;-36
2022/01/15 11:39:18;;;;;;;11.57;6.13;;;;;;;2.20;100.00;102485.69;2569382;30;136996;-36
2022/01/15 11:41:53;;;;;;;9.98;5.75;;;;;;;2.22;100.00;102476.50;2567037;30;138142;-36
2022/01/15 11:44:33;;;;;;;14.32;6.28;;;;;;;2.27;100.00;102481.56;2567559;30;137185;-36
2022/01/15 11:47:15;;;;;;;12.30;7.10;;;;;;;2.32;100.00;102476.66;2568033;30;139279;-36
2022/01/15 11:49:45;;;;;;;10.25;5.78;;;;;;;2.33;100.00;102481.06;2567227;30;137435;-36
2022/01/15 11:52:13;;;;;;;11.65;6.43;;;;;;;2.37;100.00;102479.03;2567589;30;138958;-36